YPTN/KTR METAR and TAF weather

Enter ICAO airport designator
Station Type Date Time Source
YPTN METAR 2022/06/29 01:12 UTC NOAA

YPTN 290112Z AUTO 15012KT 9999 // BKN014 BKN045 BKN094 19/15 Q1015


Station Type Date Time Source
YPTN Decoded METAR 2022/06/29 01:12 UTC NOAA

Tindal / Katherine, Australia (YPTN) 14-26S 132-16E 109M
Jun 28, 2022 - 09:12 PM EDT / 2022.06.29 0112 UTC
Wind: from the SSE (150 degrees) at 14 MPH (12 KT):0
Visibility: greater than 7 mile(s):0
Sky conditions: mostly cloudy
Temperature: 66 F (19 C)
Dew Point: 59 F (15 C)
Relative Humidity: 77%
Pressure (altimeter): 29.97 in. Hg (1015 hPa)
ob: YPTN 290112Z AUTO 15012KT 9999 // BKN014 BKN045 BKN094 19/15 Q1015
cycle: 1

Station Type Date Time Source
YPTN TAF 2022/06/28 23:56 UTC NOAA

TAF
AMD YPTN 282351Z 2823/3000 14014KT 9999 -RA SCT050
FM290800 13008KT 9999 -RA FEW030 BKN050
FM291400 14008KT 9999 -RA SCT025 BKN040
TEMPO 2823/2902 9999 BKN012
TEMPO 2910/3000 3000 RA BKN012

Example: see airport list